createdAt,value
2019-01-08T00:00:17.885Z,0
2019-01-08T00:01:18.481Z,0
2019-01-08T00:02:19.075Z,0
2019-01-08T00:03:19.702Z,0
2019-01-08T00:04:20.278Z,0
2019-01-08T00:05:20.871Z,0
2019-01-08T00:06:21.468Z,0
2019-01-08T00:07:22.063Z,0
2019-01-08T00:08:22.657Z,0
2019-01-08T00:09:23.247Z,0
2019-01-08T00:10:23.846Z,0
2019-01-08T00:11:24.440Z,0
2019-01-08T00:12:25.041Z,0
2019-01-08T00:13:25.623Z,0
2019-01-08T00:14:26.231Z,0
2019-01-08T00:15:26.816Z,0
2019-01-08T00:16:27.411Z,0
2019-01-08T00:17:28.011Z,0
2019-01-08T00:18:28.603Z,0
2019-01-08T00:19:29.205Z,0
2019-01-08T00:20:29.795Z,0
2019-01-08T00:21:30.385Z,0
2019-01-08T00:22:30.985Z,0
2019-01-08T00:23:31.577Z,0
2019-01-08T00:24:32.165Z,0
2019-01-08T00:25:32.761Z,0
2019-01-08T00:26:33.363Z,0
2019-01-08T00:27:33.960Z,0
2019-01-08T00:28:42.892Z,0
2019-01-08T00:29:35.143Z,0
2019-01-08T00:30:35.741Z,0
2019-01-08T00:31:36.329Z,0
2019-01-08T00:32:36.925Z,0
2019-01-08T00:33:37.519Z,0
2019-01-08T00:34:38.114Z,0
2019-01-08T00:35:38.701Z,0
2019-01-08T00:36:39.301Z,0
2019-01-08T00:37:39.898Z,0
2019-01-08T00:38:40.492Z,0
2019-01-08T00:39:41.084Z,0
2019-01-08T00:40:41.680Z,0
2019-01-08T00:41:42.265Z,0
2019-01-08T00:42:42.866Z,0
2019-01-08T00:43:43.459Z,0
2019-01-08T00:44:44.055Z,0
2019-01-08T00:45:44.653Z,0
2019-01-08T00:46:45.253Z,0
2019-01-08T00:47:45.845Z,0
2019-01-08T00:48:46.440Z,0
2019-01-08T00:49:47.060Z,0
2019-01-08T00:50:47.615Z,0
2019-01-08T00:51:48.209Z,0
2019-01-08T00:52:48.801Z,0
2019-01-08T00:53:49.393Z,0
2019-01-08T00:54:49.984Z,0
2019-01-08T00:55:50.577Z,0
2019-01-08T00:56:51.173Z,0
2019-01-08T00:57:51.771Z,0
2019-01-08T00:58:52.359Z,0
2019-01-08T00:59:52.957Z,0
2019-01-08T01:01:37.764Z,0
2019-01-08T01:02:38.363Z,0
2019-01-08T01:03:38.950Z,0
2019-01-08T01:04:39.534Z,0
2019-01-08T01:05:40.123Z,0
2019-01-08T01:06:40.718Z,0
2019-01-08T01:07:41.313Z,0
2019-01-08T01:08:41.911Z,0
2019-01-08T01:09:42.505Z,0
2019-01-08T01:10:43.093Z,0
2019-01-08T01:11:43.682Z,0
2019-01-08T01:12:44.277Z,0
2019-01-08T01:13:44.870Z,0
2019-01-08T01:14:45.460Z,0
2019-01-08T01:15:46.056Z,0
2019-01-08T01:16:46.647Z,0
2019-01-08T01:17:47.245Z,0
2019-01-08T01:18:47.839Z,0
2019-01-08T01:19:48.430Z,0
2019-01-08T01:20:49.027Z,0
2019-01-08T01:21:49.622Z,0
2019-01-08T01:22:50.214Z,0
2019-01-08T01:23:50.807Z,0
2019-01-08T01:24:51.402Z,0
2019-01-08T01:25:51.997Z,0
2019-01-08T01:26:52.609Z,0
2019-01-08T01:27:53.181Z,0
2019-01-08T01:28:59.908Z,0
2019-01-08T01:29:54.363Z,0
2019-01-08T01:30:54.958Z,0
2019-01-08T01:31:55.549Z,0
2019-01-08T01:32:56.142Z,0
2019-01-08T01:33:56.737Z,0
2019-01-08T01:34:57.331Z,0
2019-01-08T01:35:57.924Z,0
2019-01-08T01:36:58.525Z,0
2019-01-08T01:37:59.113Z,0
2019-01-08T01:38:59.708Z,0
2019-01-08T01:40:00.297Z,0
2019-01-08T01:41:00.889Z,0
2019-01-08T01:42:01.475Z,0
2019-01-08T01:43:02.066Z,0
2019-01-08T01:44:02.648Z,0
2019-01-08T01:45:03.244Z,0
2019-01-08T01:46:03.838Z,0
2019-01-08T01:47:04.434Z,0
2019-01-08T01:48:05.028Z,0
2019-01-08T01:49:05.614Z,0
2019-01-08T01:50:06.204Z,0
2019-01-08T01:51:06.795Z,0
2019-01-08T01:52:07.383Z,0
2019-01-08T01:53:07.968Z,0
2019-01-08T01:54:08.557Z,0
2019-01-08T01:55:09.157Z,0
2019-01-08T01:56:09.788Z,0
2019-01-08T01:57:10.344Z,0
2019-01-08T01:58:10.945Z,0
2019-01-08T01:59:11.536Z,0
2019-01-08T02:00:12.124Z,0
2019-01-08T02:01:12.716Z,0
2019-01-08T02:02:13.310Z,0
2019-01-08T02:03:13.901Z,0
2019-01-08T02:04:14.492Z,0
2019-01-08T02:05:15.090Z,0
2019-01-08T02:06:15.683Z,0
2019-01-08T02:07:16.282Z,0
2019-01-08T02:08:16.877Z,0
2019-01-08T02:09:17.479Z,0
2019-01-08T02:10:18.070Z,0
2019-01-08T02:11:18.663Z,0
2019-01-08T02:12:19.258Z,0
2019-01-08T02:13:19.853Z,0
2019-01-08T02:14:20.448Z,0
2019-01-08T02:15:21.052Z,0
2019-01-08T02:16:21.624Z,0
2019-01-08T02:17:22.213Z,0
2019-01-08T02:18:22.807Z,0
2019-01-08T02:19:23.402Z,0
2019-01-08T02:20:23.996Z,0
2019-01-08T02:21:24.591Z,0
2019-01-08T02:22:25.181Z,0
2019-01-08T02:23:25.779Z,0
2019-01-08T02:24:26.380Z,0
2019-01-08T02:25:26.969Z,0
2019-01-08T02:26:27.565Z,0
2019-01-08T02:27:28.171Z,0
2019-01-08T02:28:28.760Z,0
2019-01-08T02:29:29.354Z,0
2019-01-08T02:30:29.947Z,0
2019-01-08T02:31:30.548Z,0
2019-01-08T02:32:31.142Z,0
2019-01-08T02:33:31.739Z,0
2019-01-08T02:34:32.328Z,0
2019-01-08T02:35:32.922Z,0
2019-01-08T02:36:33.512Z,0
2019-01-08T02:37:34.105Z,0
2019-01-08T02:38:34.703Z,0
2019-01-08T02:39:35.297Z,0
2019-01-08T02:40:35.895Z,0
2019-01-08T02:41:36.482Z,0
2019-01-08T02:42:37.075Z,0
2019-01-08T02:43:37.670Z,0
2019-01-08T02:44:38.414Z,0
2019-01-08T02:45:38.957Z,0
2019-01-08T02:46:39.655Z,0
2019-01-08T02:47:40.137Z,0
2019-01-08T02:48:40.732Z,0
2019-01-08T02:49:41.329Z,0
2019-01-08T02:50:41.922Z,0
2019-01-08T02:51:42.525Z,0
2019-01-08T02:52:43.113Z,0
2019-01-08T02:53:43.699Z,0
2019-01-08T02:54:44.367Z,0
2019-01-08T02:55:44.879Z,0
2019-01-08T02:56:45.479Z,0
2019-01-08T02:57:46.158Z,0
2019-01-08T02:58:46.665Z,0
2019-01-08T02:59:48.849Z,0
2019-01-08T03:00:47.849Z,0
2019-01-08T03:01:48.445Z,0
2019-01-08T03:02:49.035Z,0
2019-01-08T03:03:49.623Z,0
2019-01-08T03:04:52.021Z,0
2019-01-08T03:05:50.799Z,0
2019-01-08T03:06:51.394Z,0
2019-01-08T03:07:51.979Z,0
2019-01-08T03:08:52.574Z,0
2019-01-08T03:09:53.176Z,0
2019-01-08T03:10:53.773Z,0
2019-01-08T03:11:54.362Z,0
2019-01-08T03:12:54.959Z,0
2019-01-08T03:13:55.549Z,0
2019-01-08T03:14:56.142Z,0
2019-01-08T03:15:56.729Z,0
2019-01-08T03:16:57.325Z,0
2019-01-08T03:17:57.927Z,0
2019-01-08T03:18:58.514Z,0
2019-01-08T03:19:59.110Z,0
2019-01-08T03:20:59.696Z,0
2019-01-08T03:22:00.282Z,0
2019-01-08T03:23:00.881Z,0
2019-01-08T03:24:01.551Z,0
2019-01-08T03:25:02.058Z,0
2019-01-08T03:26:02.654Z,0
2019-01-08T03:27:03.251Z,0
2019-01-08T03:28:03.852Z,0
2019-01-08T03:29:04.441Z,0
2019-01-08T03:30:05.042Z,0
2019-01-08T03:31:05.634Z,0
2019-01-08T03:32:06.292Z,0
2019-01-08T03:33:06.798Z,0
2019-01-08T03:34:07.393Z,0
2019-01-08T03:35:07.987Z,0
2019-01-08T03:36:08.573Z,0
2019-01-08T03:37:09.171Z,0
2019-01-08T03:38:09.760Z,0
2019-01-08T03:39:10.354Z,0
2019-01-08T03:40:10.942Z,0
2019-01-08T03:41:11.531Z,0
2019-01-08T03:42:12.125Z,0
2019-01-08T03:43:12.721Z,0
2019-01-08T03:44:13.319Z,0
2019-01-08T03:45:13.913Z,0
2019-01-08T03:46:14.509Z,0
2019-01-08T03:47:15.106Z,0
2019-01-08T03:48:15.699Z,0
2019-01-08T03:49:16.287Z,0
2019-01-08T03:50:16.880Z,0
2019-01-08T03:51:17.477Z,0
2019-01-08T03:52:18.065Z,0
2019-01-08T03:53:18.657Z,0
2019-01-08T03:54:19.271Z,0
2019-01-08T03:55:19.839Z,0
2019-01-08T03:56:20.438Z,0
2019-01-08T03:57:21.030Z,0
2019-01-08T03:58:21.630Z,0
2019-01-08T03:59:22.210Z,0
2019-01-08T04:00:22.808Z,0
2019-01-08T04:01:23.394Z,0
2019-01-08T04:02:23.990Z,0
2019-01-08T04:03:24.587Z,0
2019-01-08T04:04:25.178Z,0
2019-01-08T04:05:25.774Z,0
2019-01-08T04:06:26.376Z,0
2019-01-08T04:07:26.962Z,0
2019-01-08T04:08:27.549Z,0
2019-01-08T04:09:28.147Z,0
2019-01-08T04:10:28.743Z,0
2019-01-08T04:11:29.329Z,0
2019-01-08T04:12:29.922Z,0
2019-01-08T04:13:30.518Z,0
2019-01-08T04:14:31.105Z,0
2019-01-08T04:15:31.702Z,0
2019-01-08T04:16:32.288Z,0
2019-01-08T04:17:32.881Z,0
2019-01-08T04:18:33.480Z,0
2019-01-08T04:19:34.082Z,0
2019-01-08T04:20:34.692Z,0
2019-01-08T04:21:35.264Z,0
2019-01-08T04:22:35.860Z,0
2019-01-08T04:23:36.455Z,0
2019-01-08T04:24:37.049Z,0
2019-01-08T04:25:37.642Z,0
2019-01-08T04:26:38.243Z,0
2019-01-08T04:27:38.836Z,0
2019-01-08T04:28:39.443Z,0
2019-01-08T04:29:40.030Z,0
2019-01-08T04:30:40.629Z,0
2019-01-08T04:31:41.220Z,0
2019-01-08T04:32:41.804Z,0
2019-01-08T04:33:42.388Z,0
2019-01-08T04:34:42.975Z,0
2019-01-08T04:35:43.560Z,0
2019-01-08T04:36:44.147Z,0
2019-01-08T04:37:44.739Z,0
2019-01-08T04:38:45.340Z,0
2019-01-08T04:39:45.925Z,0
2019-01-08T04:40:46.512Z,0
2019-01-08T04:41:47.103Z,0
2019-01-08T04:42:47.698Z,0
2019-01-08T04:43:48.291Z,0
2019-01-08T04:44:48.884Z,0
2019-01-08T04:45:49.477Z,0
2019-01-08T04:46:50.078Z,0
2019-01-08T04:47:50.670Z,0
2019-01-08T04:48:51.255Z,0
2019-01-08T04:49:51.842Z,0
2019-01-08T04:50:52.440Z,0
2019-01-08T04:51:53.036Z,0
2019-01-08T04:52:53.630Z,0
2019-01-08T04:53:54.219Z,0
2019-01-08T04:54:54.813Z,0
2019-01-08T04:55:55.408Z,0
2019-01-08T04:56:55.995Z,0
2019-01-08T04:57:56.591Z,0
2019-01-08T04:58:57.180Z,0
2019-01-08T04:59:59.129Z,0
2019-01-08T05:00:59.355Z,0
2019-01-08T05:01:59.947Z,0
2019-01-08T05:03:00.544Z,0
2019-01-08T05:04:01.141Z,0
2019-01-08T05:05:01.742Z,0
2019-01-08T05:06:02.330Z,0
2019-01-08T05:07:02.919Z,0
2019-01-08T05:08:03.506Z,0
2019-01-08T05:09:04.110Z,0
2019-01-08T05:10:04.692Z,0
2019-01-08T05:11:05.279Z,0
2019-01-08T05:12:05.874Z,0
2019-01-08T05:13:06.468Z,0
2019-01-08T05:14:07.056Z,0
2019-01-08T05:15:07.641Z,0
2019-01-08T05:16:08.235Z,0
2019-01-08T05:17:08.824Z,0
2019-01-08T05:18:09.407Z,0
2019-01-08T05:19:10.002Z,0
2019-01-08T05:20:10.602Z,0
2019-01-08T05:21:11.205Z,0
2019-01-08T05:22:11.801Z,0
2019-01-08T05:23:12.394Z,0
2019-01-08T05:24:12.982Z,0
2019-01-08T05:25:13.566Z,0
2019-01-08T05:26:14.171Z,0
2019-01-08T05:27:14.756Z,0
2019-01-08T05:28:15.351Z,0
2019-01-08T05:29:15.944Z,0
2019-01-08T05:30:16.539Z,0
2019-01-08T05:31:17.136Z,0
2019-01-08T05:32:17.731Z,0
2019-01-08T05:33:18.322Z,0
2019-01-08T05:34:18.920Z,0
2019-01-08T05:35:19.512Z,0
2019-01-08T05:36:20.102Z,0
2019-01-08T05:37:20.697Z,0
2019-01-08T05:38:21.291Z,0
2019-01-08T05:39:21.883Z,0
2019-01-08T05:40:22.470Z,0
2019-01-08T05:41:23.068Z,0
2019-01-08T05:42:23.743Z,0
2019-01-08T05:43:24.251Z,0
2019-01-08T05:44:24.849Z,0
2019-01-08T05:45:25.441Z,0
2019-01-08T05:46:26.084Z,0
2019-01-08T05:47:26.631Z,0
2019-01-08T05:48:27.215Z,0
2019-01-08T05:49:27.819Z,0
2019-01-08T05:50:28.396Z,0
2019-01-08T05:51:28.993Z,0
2019-01-08T05:52:29.603Z,0
2019-01-08T05:53:30.181Z,0
2019-01-08T05:54:30.784Z,0
2019-01-08T05:55:31.362Z,0
2019-01-08T05:56:31.953Z,0
2019-01-08T05:57:32.537Z,0
2019-01-08T05:58:33.133Z,0
2019-01-08T05:59:33.720Z,0
2019-01-08T06:00:34.312Z,0
2019-01-08T06:01:34.908Z,0
2019-01-08T06:02:35.502Z,0
2019-01-08T06:03:36.090Z,0
2019-01-08T06:04:36.681Z,0
2019-01-08T06:05:37.270Z,0
2019-01-08T06:06:37.855Z,0
2019-01-08T06:07:38.446Z,0
2019-01-08T06:08:39.034Z,0
2019-01-08T06:09:39.630Z,0
2019-01-08T06:10:40.285Z,0
2019-01-08T06:11:40.810Z,0
2019-01-08T06:12:41.402Z,0
2019-01-08T06:13:41.988Z,0
2019-01-08T06:14:42.586Z,0
2019-01-08T06:15:43.180Z,0
2019-01-08T06:16:43.780Z,0
2019-01-08T06:17:44.372Z,0
2019-01-08T06:18:44.965Z,0
2019-01-08T06:19:45.560Z,0
2019-01-08T06:20:46.148Z,0
2019-01-08T06:21:46.746Z,0
2019-01-08T06:22:47.338Z,0
2019-01-08T06:23:47.939Z,0
2019-01-08T06:24:48.527Z,0
2019-01-08T06:25:49.127Z,0
2019-01-08T06:26:49.716Z,0
2019-01-08T06:27:50.313Z,0
2019-01-08T06:28:50.898Z,0
2019-01-08T06:29:51.496Z,0
2019-01-08T06:30:52.087Z,0
2019-01-08T06:31:52.683Z,0
2019-01-08T06:32:53.280Z,0
2019-01-08T06:33:53.873Z,0
2019-01-08T06:34:54.468Z,0
2019-01-08T06:35:55.078Z,0
2019-01-08T06:36:55.655Z,0
2019-01-08T06:37:56.250Z,0
2019-01-08T06:38:56.843Z,0
2019-01-08T06:39:57.436Z,0
2019-01-08T06:40:58.098Z,0
2019-01-08T06:41:58.629Z,0
2019-01-08T06:42:59.221Z,0
2019-01-08T06:43:59.830Z,0
2019-01-08T06:45:00.407Z,0
2019-01-08T06:46:01.001Z,0
2019-01-08T06:47:01.596Z,0
2019-01-08T06:48:02.192Z,0
2019-01-08T06:49:02.791Z,0
2019-01-08T06:50:03.378Z,0
2019-01-08T06:51:03.972Z,0
2019-01-08T06:52:04.567Z,0
2019-01-08T06:53:05.155Z,0
2019-01-08T06:54:05.748Z,0
2019-01-08T06:55:06.339Z,0
2019-01-08T06:56:06.929Z,0
2019-01-08T06:57:07.519Z,0
2019-01-08T06:58:08.116Z,0
2019-01-08T06:59:08.710Z,0
2019-01-08T07:00:09.306Z,0
2019-01-08T07:01:09.944Z,0
2019-01-08T07:02:10.539Z,0
2019-01-08T07:03:11.133Z,0
2019-01-08T07:04:11.731Z,0
2019-01-08T07:05:12.331Z,0
2019-01-08T07:06:12.925Z,0
2019-01-08T07:07:13.569Z,0
2019-01-08T07:08:14.158Z,0
2019-01-08T07:09:14.756Z,0
2019-01-08T07:10:15.345Z,0
2019-01-08T07:11:15.935Z,0
2019-01-08T07:12:16.518Z,0
2019-01-08T07:13:17.119Z,0
2019-01-08T07:14:17.716Z,0
2019-01-08T07:15:18.304Z,0
2019-01-08T07:16:18.895Z,0
2019-01-08T07:17:19.489Z,0
2019-01-08T07:18:20.082Z,0
2019-01-08T07:19:20.678Z,0
2019-01-08T07:20:21.277Z,0
2019-01-08T07:21:21.874Z,0
2019-01-08T07:22:22.462Z,0
2019-01-08T07:23:23.056Z,0
2019-01-08T07:24:23.647Z,0
2019-01-08T07:25:24.244Z,0
2019-01-08T07:26:24.843Z,0
2019-01-08T07:27:25.441Z,0
2019-01-08T07:28:26.040Z,0
2019-01-08T07:29:26.637Z,0
2019-01-08T07:30:27.235Z,0
2019-01-08T07:31:27.831Z,0
2019-01-08T07:32:28.431Z,0
2019-01-08T07:33:29.028Z,5
2019-01-08T07:34:29.680Z,5
2019-01-08T07:35:30.274Z,5
2019-01-08T07:36:30.869Z,5
2019-01-08T07:37:31.471Z,5
2019-01-08T07:38:32.059Z,5
2019-01-08T07:39:32.656Z,0
2019-01-08T07:40:33.258Z,5
2019-01-08T07:41:33.854Z,5
2019-01-08T07:42:34.449Z,5
2019-01-08T07:43:35.039Z,10
2019-01-08T07:44:35.640Z,10
2019-01-08T07:45:36.241Z,10
2019-01-08T07:46:36.844Z,5
2019-01-08T07:47:37.426Z,5
2019-01-08T07:48:38.049Z,5
2019-01-08T07:49:38.622Z,5
2019-01-08T07:50:39.210Z,5
2019-01-08T07:51:39.800Z,5
2019-01-08T07:52:40.401Z,5
2019-01-08T07:53:40.998Z,5
2019-01-08T07:54:41.590Z,5
2019-01-08T07:55:42.188Z,5
2019-01-08T07:56:42.782Z,5
2019-01-08T07:57:43.383Z,5
2019-01-08T07:58:43.977Z,10
2019-01-08T07:59:44.568Z,15
2019-01-08T08:00:50.005Z,15
2019-01-08T08:01:45.751Z,20
2019-01-08T08:02:46.346Z,25
2019-01-08T08:03:46.940Z,25
2019-01-08T08:04:48.090Z,25
2019-01-08T08:05:48.646Z,30
2019-01-08T08:06:49.246Z,30
2019-01-08T08:07:49.842Z,35
2019-01-08T08:08:50.442Z,40
2019-01-08T08:09:51.039Z,40
2019-01-08T08:10:51.637Z,40
2019-01-08T08:11:52.262Z,45
2019-01-08T08:12:52.982Z,50
2019-01-08T08:13:53.470Z,45
2019-01-08T08:14:54.062Z,45
2019-01-08T08:15:54.651Z,35
2019-01-08T08:16:55.245Z,35
2019-01-08T08:17:55.843Z,40
2019-01-08T08:18:56.441Z,55
2019-01-08T08:19:57.045Z,75
2019-01-08T08:20:57.645Z,75
2019-01-08T08:21:58.234Z,65
2019-01-08T08:22:58.836Z,55
2019-01-08T08:23:59.437Z,55
2019-01-08T08:25:00.025Z,55
2019-01-08T08:26:00.619Z,65
2019-01-08T08:27:01.208Z,65
2019-01-08T08:28:01.802Z,65
2019-01-08T08:29:02.399Z,75
2019-01-08T08:30:03.000Z,65
2019-01-08T08:31:03.590Z,65
2019-01-08T08:32:04.191Z,70
2019-01-08T08:33:04.793Z,85
2019-01-08T08:34:05.418Z,105
2019-01-08T08:35:08.683Z,115
2019-01-08T08:36:06.614Z,110
2019-01-08T08:37:07.207Z,95
2019-01-08T08:38:07.801Z,90
2019-01-08T08:39:08.452Z,90
2019-01-08T08:40:09.051Z,90
2019-01-08T08:41:09.643Z,90
2019-01-08T08:42:10.240Z,95
2019-01-08T08:43:10.833Z,90
2019-01-08T08:44:11.432Z,90
2019-01-08T08:45:12.036Z,90
2019-01-08T08:46:12.636Z,95
2019-01-08T08:47:13.239Z,105
2019-01-08T08:48:13.863Z,105
2019-01-08T08:49:14.435Z,100
2019-01-08T08:50:15.035Z,105
2019-01-08T08:51:15.636Z,115
2019-01-08T08:52:16.229Z,110
2019-01-08T08:53:16.829Z,90
2019-01-08T08:54:17.431Z,80
2019-01-08T08:55:18.027Z,80
2019-01-08T08:56:18.629Z,85
2019-01-08T08:57:19.222Z,80
2019-01-08T08:58:19.812Z,70
2019-01-08T08:59:20.413Z,80
2019-01-08T09:00:21.011Z,95
2019-01-08T09:01:21.615Z,90
2019-01-08T09:02:22.228Z,105
2019-01-08T09:03:22.819Z,110
2019-01-08T09:04:23.426Z,120
2019-01-08T09:05:24.017Z,150
2019-01-08T09:06:24.615Z,150
2019-01-08T09:07:25.220Z,145
2019-01-08T09:08:25.819Z,185
2019-01-08T09:09:26.419Z,185
2019-01-08T09:10:27.021Z,175
2019-01-08T09:11:27.615Z,150
2019-01-08T09:12:28.221Z,165
2019-01-08T09:13:28.823Z,165
2019-01-08T09:14:29.416Z,170
2019-01-08T09:15:30.016Z,165
2019-01-08T09:16:30.617Z,135
2019-01-08T09:17:31.209Z,115
2019-01-08T09:18:33.707Z,100
2019-01-08T09:19:32.406Z,65
2019-01-08T09:20:32.994Z,60
2019-01-08T09:21:33.596Z,60
2019-01-08T09:22:34.187Z,75
2019-01-08T09:23:34.790Z,90
2019-01-08T09:24:35.386Z,85
2019-01-08T09:25:35.979Z,65
2019-01-08T09:26:36.578Z,70
2019-01-08T09:27:37.176Z,60
2019-01-08T09:28:37.766Z,70
2019-01-08T09:29:38.358Z,75
2019-01-08T09:30:38.959Z,115
2019-01-08T09:31:39.555Z,115
2019-01-08T09:32:40.155Z,115
2019-01-08T09:33:40.757Z,105
2019-01-08T09:34:41.355Z,85
2019-01-08T09:35:41.948Z,85
2019-01-08T09:36:42.551Z,95
2019-01-08T09:37:43.145Z,115
2019-01-08T09:38:43.747Z,125
2019-01-08T09:39:44.351Z,110
2019-01-08T09:40:44.946Z,95
2019-01-08T09:41:45.552Z,65
2019-01-08T09:42:46.149Z,85
2019-01-08T09:43:46.752Z,90
2019-01-08T09:44:47.352Z,105
2019-01-08T09:45:47.953Z,115
2019-01-08T09:46:48.546Z,125
2019-01-08T09:47:49.147Z,105
2019-01-08T09:48:49.738Z,95
2019-01-08T09:49:50.337Z,95
2019-01-08T09:50:50.939Z,95
2019-01-08T09:51:51.786Z,105
2019-01-08T09:52:52.389Z,120
2019-01-08T09:53:53.093Z,115
2019-01-08T09:54:53.696Z,115
2019-01-08T09:55:54.295Z,125
2019-01-08T09:56:54.891Z,135
2019-01-08T09:57:55.493Z,130
2019-01-08T09:58:56.098Z,135
2019-01-08T09:59:56.694Z,145
2019-01-08T10:00:57.296Z,125
2019-01-08T10:01:57.886Z,120
2019-01-08T10:02:58.486Z,115
2019-01-08T10:03:59.086Z,95
2019-01-08T10:04:59.686Z,100
2019-01-08T10:06:00.281Z,100
2019-01-08T10:07:00.880Z,105
2019-01-08T10:08:01.522Z,115
2019-01-08T10:09:02.126Z,95
2019-01-08T10:10:02.728Z,100
2019-01-08T10:11:03.328Z,90
2019-01-08T10:12:03.933Z,80
2019-01-08T10:13:04.522Z,140
2019-01-08T10:14:05.126Z,160
2019-01-08T10:15:05.715Z,195
2019-01-08T10:16:06.317Z,230
2019-01-08T10:17:06.918Z,235
2019-01-08T10:18:07.516Z,185
2019-01-08T10:19:08.114Z,150
2019-01-08T10:20:08.716Z,135
2019-01-08T10:21:09.319Z,135
2019-01-08T10:22:09.921Z,150
2019-01-08T10:23:10.542Z,130
2019-01-08T10:24:11.126Z,120
2019-01-08T10:25:11.730Z,145
2019-01-08T10:26:12.331Z,170
2019-01-08T10:27:12.933Z,205
2019-01-08T10:28:13.532Z,215
2019-01-08T10:29:14.192Z,205
2019-01-08T10:30:14.732Z,150
2019-01-08T10:31:15.331Z,140
2019-01-08T10:32:15.931Z,150
2019-01-08T10:33:16.532Z,120
2019-01-08T10:34:17.137Z,140
2019-01-08T10:35:17.739Z,115
2019-01-08T10:36:18.339Z,150
2019-01-08T10:37:18.942Z,180
2019-01-08T10:38:19.535Z,165
2019-01-08T10:39:20.124Z,165
2019-01-08T10:40:20.925Z,180
2019-01-08T10:41:21.519Z,205
2019-01-08T10:42:22.110Z,180
2019-01-08T10:43:22.711Z,150
2019-01-08T10:44:23.312Z,105
2019-01-08T10:45:23.904Z,90
2019-01-08T10:46:24.499Z,105
2019-01-08T10:47:25.100Z,115
2019-01-08T10:48:25.693Z,115
2019-01-08T10:49:26.296Z,160
2019-01-08T10:50:26.887Z,135
2019-01-08T10:51:27.483Z,140
2019-01-08T10:52:28.080Z,180
2019-01-08T10:53:28.671Z,205
2019-01-08T10:54:29.270Z,230
2019-01-08T10:55:29.868Z,225
2019-01-08T10:56:30.473Z,185
2019-01-08T10:57:31.071Z,180
2019-01-08T10:58:31.671Z,195
2019-01-08T10:59:32.271Z,215
2019-01-08T11:00:32.881Z,225
2019-01-08T11:01:40.541Z,255
2019-01-08T11:02:34.075Z,275
2019-01-08T11:03:34.674Z,305
2019-01-08T11:04:35.276Z,325
2019-01-08T11:05:35.883Z,315
2019-01-08T11:06:36.483Z,265
2019-01-08T11:07:37.084Z,240
2019-01-08T11:08:37.688Z,230
2019-01-08T11:09:38.289Z,200
2019-01-08T11:10:38.908Z,195
2019-01-08T11:11:39.497Z,190
2019-01-08T11:12:40.097Z,180
2019-01-08T11:13:40.695Z,175
2019-01-08T11:14:41.344Z,150
2019-01-08T11:15:41.945Z,140
2019-01-08T11:16:42.554Z,160
2019-01-08T11:17:43.144Z,140
2019-01-08T11:18:43.738Z,110
2019-01-08T11:19:44.334Z,120
2019-01-08T11:20:44.927Z,135
2019-01-08T11:21:45.526Z,170
2019-01-08T11:22:46.132Z,245
2019-01-08T11:23:46.750Z,225
2019-01-08T11:24:47.337Z,200
2019-01-08T11:25:47.933Z,185
2019-01-08T11:26:48.681Z,165
2019-01-08T11:27:49.283Z,160
2019-01-08T11:28:49.885Z,140
2019-01-08T11:29:50.478Z,120
2019-01-08T11:30:51.082Z,145
2019-01-08T11:31:51.687Z,170
2019-01-08T11:32:52.289Z,215
2019-01-08T11:33:52.902Z,250
2019-01-08T11:34:53.484Z,300
2019-01-08T11:35:54.089Z,315
2019-01-08T11:36:54.686Z,300
2019-01-08T11:37:55.298Z,305
2019-01-08T11:38:55.887Z,350
2019-01-08T11:39:56.493Z,375
2019-01-08T11:40:57.108Z,305
2019-01-08T11:41:57.688Z,260
2019-01-08T11:42:58.290Z,255
2019-01-08T11:43:58.907Z,250
2019-01-08T11:44:59.494Z,250
2019-01-08T11:46:00.101Z,195
2019-01-08T11:47:00.701Z,145
2019-01-08T11:48:04.212Z,155
2019-01-08T11:49:02.878Z,155
2019-01-08T11:50:03.473Z,135
2019-01-08T11:51:04.077Z,125
2019-01-08T11:52:04.672Z,140
2019-01-08T11:53:05.275Z,195
2019-01-08T11:54:05.878Z,235
2019-01-08T11:55:06.481Z,200
2019-01-08T11:56:07.084Z,160
2019-01-08T11:57:07.687Z,135
2019-01-08T11:58:08.289Z,130
2019-01-08T11:59:08.892Z,115
2019-01-08T12:00:09.489Z,90
2019-01-08T12:01:10.089Z,100
2019-01-08T12:02:10.677Z,95
2019-01-08T12:03:11.271Z,115
2019-01-08T12:04:11.872Z,130
2019-01-08T12:05:12.472Z,175
2019-01-08T12:06:13.077Z,145
2019-01-08T12:07:13.669Z,80
2019-01-08T12:08:14.268Z,65
2019-01-08T12:09:14.871Z,65
2019-01-08T12:10:15.482Z,70
2019-01-08T12:11:16.071Z,125
2019-01-08T12:12:16.664Z,180
2019-01-08T12:13:17.258Z,225
2019-01-08T12:14:17.869Z,250
2019-01-08T12:15:18.455Z,220
2019-01-08T12:16:19.052Z,200
2019-01-08T12:17:19.645Z,185
2019-01-08T12:18:20.249Z,165
2019-01-08T12:19:20.845Z,175
2019-01-08T12:20:21.441Z,160
2019-01-08T12:21:22.058Z,175
2019-01-08T12:22:22.645Z,175
2019-01-08T12:23:23.247Z,195
2019-01-08T12:24:23.837Z,160
2019-01-08T12:25:24.436Z,200
2019-01-08T12:26:25.032Z,185
2019-01-08T12:27:25.632Z,180
2019-01-08T12:28:26.235Z,165
2019-01-08T12:29:26.846Z,135
2019-01-08T12:30:27.441Z,130
2019-01-08T12:31:28.038Z,130
2019-01-08T12:32:28.636Z,140
2019-01-08T12:33:29.232Z,165
2019-01-08T12:34:29.827Z,200
2019-01-08T12:35:30.427Z,235
2019-01-08T12:36:31.019Z,245
2019-01-08T12:37:31.626Z,245
2019-01-08T12:38:32.226Z,225
2019-01-08T12:39:32.827Z,160
2019-01-08T12:40:33.435Z,140
2019-01-08T12:41:34.022Z,155
2019-01-08T12:42:34.626Z,195
2019-01-08T12:43:35.238Z,330
2019-01-08T12:44:35.840Z,490
2019-01-08T12:45:36.432Z,290
2019-01-08T12:46:37.034Z,135
2019-01-08T12:47:37.639Z,110
2019-01-08T12:48:38.230Z,145
2019-01-08T12:49:38.823Z,185
2019-01-08T12:50:39.441Z,240
2019-01-08T12:51:40.027Z,225
2019-01-08T12:52:40.622Z,215
2019-01-08T12:53:41.212Z,240
2019-01-08T12:54:41.816Z,260
2019-01-08T12:55:42.409Z,215
2019-01-08T12:56:43.012Z,175
2019-01-08T12:57:43.618Z,210
2019-01-08T12:58:44.218Z,235
2019-01-08T12:59:44.810Z,245
2019-01-08T13:00:45.414Z,240
2019-01-08T13:01:46.044Z,245
2019-01-08T13:02:46.743Z,325
2019-01-08T13:03:47.357Z,435
2019-01-08T13:04:47.964Z,430
2019-01-08T13:05:48.561Z,300
2019-01-08T13:06:49.164Z,230
2019-01-08T13:07:49.758Z,220
2019-01-08T13:08:50.362Z,300
2019-01-08T13:09:50.967Z,290
2019-01-08T13:10:51.570Z,205
2019-01-08T13:11:52.170Z,155
2019-01-08T13:12:52.772Z,165
2019-01-08T13:13:53.378Z,265
2019-01-08T13:14:53.971Z,285
2019-01-08T13:15:54.572Z,240
2019-01-08T13:16:55.178Z,240
2019-01-08T13:17:55.780Z,280
2019-01-08T13:18:56.377Z,310
2019-01-08T13:19:56.980Z,300
2019-01-08T13:20:57.582Z,340
2019-01-08T13:21:58.185Z,310
2019-01-08T13:22:58.788Z,320
2019-01-08T13:23:59.395Z,310
2019-01-08T13:24:59.995Z,295
2019-01-08T13:26:00.594Z,295
2019-01-08T13:27:01.187Z,295
2019-01-08T13:28:01.790Z,280
2019-01-08T13:29:02.391Z,260
2019-01-08T13:30:02.989Z,295
2019-01-08T13:31:03.588Z,275
2019-01-08T13:32:04.183Z,245
2019-01-08T13:33:04.785Z,255
2019-01-08T13:34:05.379Z,255
2019-01-08T13:35:05.986Z,170
2019-01-08T13:36:06.591Z,110
2019-01-08T13:37:07.190Z,100
2019-01-08T13:38:07.792Z,95
2019-01-08T13:39:08.409Z,90
2019-01-08T13:40:08.997Z,80
2019-01-08T13:41:09.598Z,75
2019-01-08T13:42:10.199Z,80
2019-01-08T13:43:10.801Z,85
2019-01-08T13:44:11.389Z,110
2019-01-08T13:45:11.990Z,145
2019-01-08T13:46:12.594Z,165
2019-01-08T13:47:13.191Z,220
2019-01-08T13:48:13.801Z,300
2019-01-08T13:49:14.400Z,290
2019-01-08T13:50:14.996Z,300
2019-01-08T13:51:15.591Z,295
2019-01-08T13:52:16.186Z,230
2019-01-08T13:53:16.776Z,210
2019-01-08T13:54:17.370Z,210
2019-01-08T13:55:17.966Z,250
2019-01-08T13:56:18.567Z,270
2019-01-08T13:57:19.177Z,245
2019-01-08T13:58:19.783Z,275
2019-01-08T13:59:20.505Z,190
2019-01-08T14:00:21.054Z,110
2019-01-08T14:01:21.653Z,85
2019-01-08T14:02:22.255Z,95
2019-01-08T14:03:22.846Z,125
2019-01-08T14:04:23.443Z,125
2019-01-08T14:05:24.043Z,115
2019-01-08T14:06:24.636Z,95
2019-01-08T14:07:25.235Z,95
2019-01-08T14:08:25.837Z,135
2019-01-08T14:09:26.437Z,155
2019-01-08T14:10:27.060Z,150
2019-01-08T14:11:27.652Z,155
2019-01-08T14:12:28.255Z,180
2019-01-08T14:13:28.860Z,170
2019-01-08T14:14:29.462Z,215
2019-01-08T14:15:30.058Z,235
2019-01-08T14:16:30.661Z,175
2019-01-08T14:17:31.264Z,110
2019-01-08T14:18:31.857Z,130
2019-01-08T14:19:32.454Z,130
2019-01-08T14:20:33.057Z,105
2019-01-08T14:21:33.683Z,125
2019-01-08T14:22:34.262Z,130
2019-01-08T14:23:34.868Z,145
2019-01-08T14:24:35.467Z,225
2019-01-08T14:25:36.068Z,235
2019-01-08T14:26:36.673Z,175
2019-01-08T14:27:37.262Z,110
2019-01-08T14:28:37.852Z,70
2019-01-08T14:29:38.454Z,50
2019-01-08T14:30:39.054Z,55
2019-01-08T14:31:39.651Z,55